Time;durP1;ratioP1;P1;durP2;ratioP2;P2;SDS_P1;SDS_P2;PMS_P1;PMS_P2;Temp;Humidity;BMP_temperature;BMP_pressure;BME280_temperature;BME280_humidity;BME280_pressure;Samples;Min_cycle;Max_cycle;Signal;HPM_P1;HPM_P2
2023/10/01 00:01:00;;;;;;;;;;;;;;;15.17;100.00;99743.44;4973013;28;1894;-60
2023/10/01 00:03:27;;;;;;;;;;;;;;;15.16;100.00;99737.09;4974458;28;838;-60
2023/10/01 00:05:53;;;;;;;;;;;;;;;15.19;100.00;99729.88;4974268;28;874;-59
2023/10/01 00:08:20;;;;;;;;;;;;;;;15.27;100.00;99734.81;4974281;28;936;-60
2023/10/01 00:10:46;;;;;;;;;;;;;;;15.30;100.00;99733.19;4974125;28;868;-60
2023/10/01 00:13:14;;;;;;;;;;;;;;;15.47;100.00;99726.38;4956570;28;1278;-60
2023/10/01 00:15:41;;;;;;;;;;;;;;;15.62;100.00;99726.78;4974341;28;899;-60
2023/10/01 00:18:08;;;;;;;;;;;;;;;15.81;100.00;99729.88;4974052;28;882;-59
2023/10/01 00:20:35;;;;;;;;;;;;;;;15.78;100.00;99728.75;4973979;28;1918;-59
2023/10/01 00:23:06;;;;;;;;;;;;;;;15.69;100.00;99732.16;4974081;28;813;-60
2023/10/01 00:25:34;;;;;;;;;;;;;;;15.65;100.00;99728.66;4973817;28;825;-59
2023/10/01 00:28:04;;;;;;;;;;;;;;;15.55;100.00;99723.38;4973908;28;884;-60
2023/10/01 00:30:33;;;;;;;;;;;;;;;15.55;100.00;99726.94;4973529;28;884;-59
2023/10/01 00:33:05;;;;;;;;;;;;;;;15.64;100.00;99724.34;4974038;28;892;-60
2023/10/01 00:35:31;;;;;;;;;;;;;;;15.61;100.00;99722.41;4973782;28;899;-60
2023/10/01 00:37:58;;;;;;;;;;;;;;;15.63;100.00;99727.53;4973691;28;805;-60
2023/10/01 00:40:24;;;;;;;;;;;;;;;15.75;100.00;99721.28;4973641;28;1954;-60
2023/10/01 00:42:51;;;;;;;;;;;;;;;15.76;100.00;99714.47;4956271;28;1355;-59
2023/10/01 00:45:17;;;;;;;;;;;;;;;15.76;100.00;99724.84;4973661;28;825;-59
2023/10/01 00:47:46;;;;;;;;;;;;;;;15.70;100.00;99721.78;4973791;28;900;-59
2023/10/01 00:50:21;;;;;;;;;;;;;;;15.68;100.00;99724.22;4973615;28;833;-60
2023/10/01 00:52:49;;;;;;;;;;;;;;;15.62;100.00;99723.19;4973402;28;836;-60
2023/10/01 00:55:17;;;;;;;;;;;;;;;15.62;100.00;99728.75;4973328;28;797;-60
2023/10/01 00:57:44;;;;;;;;;;;;;;;15.71;100.00;99726.94;4973415;28;825;-59
2023/10/01 01:00:16;;;;;;;;;;;;;;;15.76;100.00;99724.84;4973269;28;1898;-60
2023/10/01 01:03:26;;;;;;;;;;;;;;;15.77;100.00;99726.41;4973610;28;825;-59
2023/10/01 01:05:57;;;;;;;;;;;;;;;15.69;100.00;99723.78;4967785;28;1154;-59
2023/10/01 01:08:33;;;;;;;;;;;;;;;15.75;100.00;99728.88;4955545;28;1345;-60
2023/10/01 01:11:03;;;;;;;;;;;;;;;15.69;100.00;99723.78;4973086;28;818;-60
2023/10/01 01:13:33;;;;;;;;;;;;;;;15.68;100.00;99719.44;4955621;28;1398;-59
2023/10/01 01:16:00;;;;;;;;;;;;;;;15.69;100.00;99717.44;4973132;28;876;-59
2023/10/01 01:18:27;;;;;;;;;;;;;;;15.71;100.00;99723.34;4973095;28;821;-60
2023/10/01 01:21:09;;;;;;;;;;;;;;;15.76;100.00;99710.91;4973042;28;1977;-60
2023/10/01 01:23:36;;;;;;;;;;;;;;;15.76;100.00;99716.50;4955445;28;1301;-60
2023/10/01 01:26:03;;;;;;;;;;;;;;;15.95;100.00;99717.56;4973101;28;876;-60
2023/10/01 01:28:30;;;;;;;;;;;;;;;15.98;100.00;99708.31;4972963;28;928;-60
2023/10/01 01:31:01;;;;;;;;;;;;;;;15.87;100.00;99714.19;4973184;28;813;-60
2023/10/01 01:33:31;;;;;;;;;;;;;;;15.86;100.00;99713.41;4972931;28;888;-60
2023/10/01 01:36:06;;;;;;;;;;;;;;;16.12;100.00;99713.47;4971645;28;1528;-60
2023/10/01 01:38:34;;;;;;;;;;;;;;;16.31;98.23;99708.94;4972940;28;933;-60
2023/10/01 01:41:01;;;;;;;;;;;;;;;16.45;96.66;99714.09;4972723;28;1953;-59
2023/10/01 01:43:30;;;;;;;;;;;;;;;16.54;95.33;99713.44;4975515;28;825;-60
2023/10/01 01:46:00;;;;;;;;;;;;;;;16.58;94.38;99705.72;4975569;28;1399;-60
2023/10/01 01:48:34;;;;;;;;;;;;;;;16.63;93.55;99712.75;4977173;28;896;-60
2023/10/01 01:51:01;;;;;;;;;;;;;;;16.55;94.10;99714.97;4976724;28;857;-60
2023/10/01 01:53:34;;;;;;;;;;;;;;;16.40;95.16;99713.84;4976715;28;811;-59
2023/10/01 01:56:13;;;;;;;;;;;;;;;16.28;95.89;99713.41;4976773;28;837;-60
2023/10/01 01:58:41;;;;;;;;;;;;;;;16.24;96.27;99711.94;4976822;28;848;-59
2023/10/01 02:01:08;;;;;;;;;;;;;;;16.29;95.62;99716.97;4976527;28;1997;-59
2023/10/01 02:03:44;;;;;;;;;;;;;;;16.35;94.97;99717.22;4976529;28;934;-60
2023/10/01 02:06:10;;;;;;;;;;;;;;;16.27;95.66;99713.84;4976581;28;907;-60
2023/10/01 02:08:54;;;;;;;;;;;;;;;16.20;96.20;99716.84;4959066;28;856;-60
2023/10/01 02:11:21;;;;;;;;;;;;;;;16.21;95.68;99721.19;4976737;28;1227;-60
2023/10/01 02:13:50;;;;;;;;;;;;;;;16.12;96.02;99721.84;4976350;28;1528;-60
2023/10/01 02:19:11;;;;;;;;;;;;;;;15.87;98.44;99728.09;4976133;28;852;-60
2023/10/01 02:21:48;;;;;;;;;;;;;;;15.86;98.70;99723.78;4976119;28;1918;-60
2023/10/01 02:24:22;;;;;;;;;;;;;;;15.92;98.39;99714.44;4976102;28;955;-59
2023/10/01 02:27:03;;;;;;;;;;;;;;;15.88;98.35;99716.53;4976100;28;915;-60
2023/10/01 02:29:32;;;;;;;;;;;;;;;15.88;98.35;99724.13;4976340;28;904;-60
2023/10/01 02:32:04;;;;;;;;;;;;;;;15.91;98.12;99717.66;4976258;28;800;-60
2023/10/01 02:34:31;;;;;;;;;;;;;;;15.87;98.61;99703.84;4976121;28;888;-60
2023/10/01 02:36:58;;;;;;;;;;;;;;;15.99;97.70;99705.06;4975968;28;829;-60
2023/10/01 02:39:27;;;;;;;;;;;;;;;16.23;95.70;99708.34;4975945;28;864;-60
2023/10/01 02:44:33;;;;;;;;;;;;;;;16.41;93.34;99709.81;4975767;28;683;-60
2023/10/01 02:47:09;;;;;;;;;;;;;;;16.35;93.77;99712.41;4975737;28;853;-60
2023/10/01 02:49:47;;;;;;;;;;;;;;;16.17;95.46;99712.13;4975641;28;887;-59
2023/10/01 02:52:14;;;;;;;;;;;;;;;16.01;96.60;99711.00;4975545;28;860;-59
2023/10/01 02:54:41;;;;;;;;;;;;;;;15.91;97.61;99712.84;4974389;28;861;-60
2023/10/01 02:57:23;;;;;;;;;;;;;;;15.83;98.28;99710.72;4975559;28;917;-59
2023/10/01 03:02:38;;;;;;;;;;;;;;;15.65;100.00;99711.19;4975497;28;690;-60
2023/10/01 03:05:08;;;;;;;;;;;;;;;15.48;100.00;99708.41;4975582;28;876;-60
2023/10/01 03:07:45;;;;;;;;;;;;;;;15.38;100.00;99712.25;4975315;28;814;-60
2023/10/01 03:10:25;;;;;;;;;;;;;;;15.42;100.00;99706.59;4975618;28;924;-60
2023/10/01 03:12:58;;;;;;;;;;;;;;;15.52;100.00;99708.34;4975708;28;935;-60
2023/10/01 03:15:27;;;;;;;;;;;;;;;15.56;100.00;99703.44;4975544;28;825;-59
2023/10/01 03:17:58;;;;;;;;;;;;;;;16.01;95.07;99704.66;4975100;28;912;-60
2023/10/01 03:23:13;;;;;;;;;;;;;;;15.95;93.94;99704.41;4975299;28;1001;-60
2023/10/01 03:25:57;;;;;;;;;;;;;;;15.81;94.44;99715.94;4975135;28;908;-60
2023/10/01 03:28:26;;;;;;;;;;;;;;;15.69;94.37;99709.84;4975037;28;932;-59
2023/10/01 03:31:17;;;;;;;;;;;;;;;15.54;95.60;99716.25;4975021;28;884;-59
2023/10/01 03:33:45;;;;;;;;;;;;;;;15.59;94.37;99713.72;4974186;28;1189;-60
2023/10/01 03:36:16;;;;;;;;;;;;;;;15.59;94.24;99715.72;4974773;28;880;-59
2023/10/01 03:38:47;;;;;;;;;;;;;;;15.48;94.71;99707.66;4974941;28;853;-60
2023/10/01 03:41:23;;;;;;;;;;;;;;;15.42;94.87;99707.38;4974630;28;1930;-60
2023/10/01 03:43:52;;;;;;;;;;;;;;;15.47;94.13;99708.88;4973511;28;1372;-60
2023/10/01 03:48:58;;;;;;;;;;;;;;;15.55;92.63;99709.47;4974694;28;861;-60
2023/10/01 03:51:29;;;;;;;;;;;;;;;15.65;91.57;99719.53;4974469;28;833;-60
2023/10/01 03:54:00;;;;;;;;;;;;;;;15.59;91.65;99718.50;4974594;28;941;-60
2023/10/01 03:56:30;;;;;;;;;;;;;;;15.54;91.82;99714.25;4974575;28;864;-60
2023/10/01 03:58:57;;;;;;;;;;;;;;;15.57;91.17;99716.16;4974346;28;874;-60
2023/10/01 04:01:33;;;;;;;;;;;;;;;15.58;90.99;99720.50;4974429;28;1886;-60
2023/10/01 04:04:00;;;;;;;;;;;;;;;15.95;87.13;99718.34;4974316;28;868;-60
2023/10/01 04:06:28;;;;;;;;;;;;;;;16.21;84.35;99719.16;4973894;28;916;-60
2023/10/01 04:08:58;;;;;;;;;;;;;;;16.41;81.76;99710.63;4974291;28;1221;-60
2023/10/01 04:11:41;;;;;;;;;;;;;;;16.49;80.99;99711.97;4974380;28;915;-60
2023/10/01 04:14:17;;;;;;;;;;;;;;;16.41;81.34;99724.56;4969328;28;1495;-60
2023/10/01 04:16:48;;;;;;;;;;;;;;;16.37;81.38;99718.31;4954828;29;998;-60
2023/10/01 04:19:18;;;;;;;;;;;;;;;16.42;80.49;99726.13;4954784;29;888;-60
2023/10/01 04:21:50;;;;;;;;;;;;;;;16.62;78.85;99727.91;4954475;29;1931;-60
2023/10/01 04:24:21;;;;;;;;;;;;;;;16.86;76.52;99725.63;4954603;29;851;-60
2023/10/01 04:26:49;;;;;;;;;;;;;;;16.95;75.40;99736.88;4953702;29;1206;-59
2023/10/01 04:29:19;;;;;;;;;;;;;;;16.73;75.57;99695.69;4954583;29;859;-60
2023/10/01 04:31:49;;;;;;;;;;;;;;;16.85;76.08;99730.41;4937294;29;1210;-60
2023/10/01 04:34:17;;;;;;;;;;;;;;;16.82;76.98;99731.31;4954451;29;915;-59
2023/10/01 04:36:44;;;;;;;;;;;;;;;16.79;77.26;99725.81;4954561;29;845;-60
2023/10/01 04:39:11;;;;;;;;;;;;;;;16.81;77.25;99728.97;4954280;29;894;-59
2023/10/01 04:41:41;;;;;;;;;;;;;;;17.01;75.71;99731.53;4954256;29;1957;-60
2023/10/01 04:44:07;;;;;;;;;;;;;;;17.19;74.95;99733.72;4954289;29;886;-60
2023/10/01 04:46:40;;;;;;;;;;;;;;;17.31;74.03;99735.72;4954507;29;888;-59
2023/10/01 04:49:40;;;;;;;;;;;;;;;17.50;72.89;99745.84;4954271;29;900;-60
2023/10/01 04:51:59;;;;;;;;;;;;;;;17.78;70.04;99736.91;4953938;29;1397;-60
2023/10/01 04:54:26;;;;;;;;;;;;;;;18.09;67.56;99739.81;4954492;29;884;-59
2023/10/01 04:56:55;;;;;;;;;;;;;;;18.38;65.58;99742.31;4954407;29;857;-59
2023/10/01 04:59:24;;;;;;;;;;;;;;;18.62;63.96;99744.63;4954225;29;819;-59
2023/10/01 05:01:56;;;;;;;;;;;;;;;18.75;63.25;99746.09;4953945;29;1882;-59
2023/10/01 05:04:23;;;;;;;;;;;;;;;18.85;62.53;99748.94;4952781;29;1162;-59
2023/10/01 05:07:04;;;;;;;;;;;;;;;18.95;61.85;99748.53;4954083;29;821;-59
2023/10/01 05:09:33;;;;;;;;;;;;;;;19.10;60.71;99756.34;4954200;29;914;-59
2023/10/01 05:12:03;;;;;;;;;;;;;;;19.19;60.64;99750.78;4953978;29;913;-59
2023/10/01 05:14:30;;;;;;;;;;;;;;;19.23;61.17;99754.19;4966054;28;1274;-59
2023/10/01 05:17:07;;;;;;;;;;;;;;;19.31;60.04;99751.88;4972433;28;864;-59
2023/10/01 05:19:37;;;;;;;;;;;;;;;19.44;58.95;99755.34;4973073;28;908;-59
2023/10/01 05:22:04;;;;;;;;;;;;;;;19.58;57.36;99751.91;4973080;28;853;-59
2023/10/01 05:24:34;;;;;;;;;;;;;;;19.72;55.92;99752.59;4973070;28;833;-59
2023/10/01 05:27:02;;;;;;;;;;;;;;;19.86;55.72;99749.16;4973227;28;881;-59
2023/10/01 05:29:31;;;;;;;;;;;;;;;20.05;55.74;99752.72;4973020;28;877;-60
2023/10/01 05:31:57;;;;;;;;;;;;;;;20.28;54.39;99750.50;4972953;28;896;-59
2023/10/01 05:34:25;;;;;;;;;;;;;;;20.60;53.01;99752.63;4972979;28;833;-60
2023/10/01 05:36:52;;;;;;;;;;;;;;;20.74;51.79;99750.41;4973293;28;860;-59
2023/10/01 05:39:23;;;;;;;;;;;;;;;20.76;51.58;99745.09;4972915;28;915;-57
2023/10/01 05:41:51;;;;;;;;;;;;;;;20.76;50.97;99757.13;4972915;28;1911;-59
2023/10/01 05:44:22;;;;;;;;;;;;;;;20.93;50.52;99753.91;4972852;28;899;-59
2023/10/01 05:46:49;;;;;;;;;;;;;;;21.13;49.82;99753.34;4955496;28;1334;-59
2023/10/01 05:49:19;;;;;;;;;;;;;;;21.28;49.17;99754.19;4972594;28;892;-59
2023/10/01 05:51:46;;;;;;;;;;;;;;;21.41;48.47;99751.94;4972837;28;881;-58
2023/10/01 05:54:18;;;;;;;;;;;;;;;21.56;47.40;99751.22;4972723;28;842;-59
2023/10/01 05:56:48;;;;;;;;;;;;;;;21.74;46.48;99759.53;4972896;28;845;-59
2023/10/01 05:59:15;;;;;;;;;;;;;;;21.82;45.77;99752.25;4972697;28;833;-59
2023/10/01 06:01:43;;;;;;;;;;;;;;;21.79;45.20;99749.66;4971321;28;1886;-57
2023/10/01 06:04:12;;;;;;;;;;;;;;;21.65;45.66;99747.56;4972795;28;825;-58
2023/10/01 06:06:45;;;;;;;;;;;;;;;21.51;44.92;99746.28;4972595;28;888;-59
2023/10/01 06:09:15;;;;;;;;;;;;;;;21.51;45.31;99755.50;4972700;28;896;-59
2023/10/01 06:11:48;;;;;;;;;;;;;;;21.60;45.30;99754.66;4971130;28;1225;-58
2023/10/01 06:17:05;;;;;;;;;;;;;;;21.85;44.38;99761.00;4972822;28;795;-59
2023/10/01 06:19:34;;;;;;;;;;;;;;;21.81;44.70;99770.41;4972722;28;837;-60
2023/10/01 06:22:13;;;;;;;;;;;;;;;21.92;44.63;99766.28;4972452;28;1906;-60
2023/10/01 06:24:43;;;;;;;;;;;;;;;22.02;44.08;99767.75;4972429;28;896;-59
2023/10/01 06:27:12;;;;;;;;;;;;;;;22.09;43.83;99775.03;4972461;28;834;-59
2023/10/01 06:29:50;;;;;;;;;;;;;;;22.20;43.55;99773.19;4975023;28;828;-58
2023/10/01 06:32:20;;;;;;;;;;;;;;;22.30;43.18;99782.38;4976022;28;825;-58
2023/10/01 06:34:49;;;;;;;;;;;;;;;22.40;43.06;99783.03;4975941;28;866;-58
2023/10/01 06:37:15;;;;;;;;;;;;;;;22.52;42.83;99789.66;4976000;28;900;-59
2023/10/01 06:39:43;;;;;;;;;;;;;;;22.80;42.98;99790.88;4958485;28;1955;-56
2023/10/01 07:13:29;;;;;;;;;;;;;;;25.36;37.86;99813.84;5465464;23;2738;-64
2023/10/01 07:15:55;;;;;;;;;;;;;;;25.58;37.07;99816.03;4956323;29;1176;-66
2023/10/01 07:18:22;;;;;;;;;;;;;;;25.67;36.54;99801.66;4956252;29;837;-68
2023/10/01 07:20:51;;;;;;;;;;;;;;;25.94;37.30;99818.53;4956173;29;1914;-68
2023/10/01 07:23:21;;;;;;;;;;;;;;;26.31;35.56;99809.09;4938663;29;1187;-72
2023/10/01 07:25:49;;;;;;;;;;;;;;;26.23;35.49;99812.44;4955875;29;867;-71
2023/10/01 07:28:18;;;;;;;;;;;;;;;26.01;36.17;99815.19;4955730;29;1018;-70
2023/10/01 07:30:45;;;;;;;;;;;;;;;25.87;36.15;99826.19;4955860;29;986;-69
2023/10/01 07:33:14;;;;;;;;;;;;;;;24.80;37.58;99813.41;4955920;29;817;-68
2023/10/01 07:35:44;;;;;;;;;;;;;;;23.97;39.71;99826.94;4955487;29;925;-68
2023/10/01 07:38:15;;;;;;;;;;;;;;;23.42;40.92;99820.03;4955619;29;833;-68
2023/10/01 07:40:57;;;;;;;;;;;;;;;23.14;41.57;99819.63;4954665;28;1890;-69
2023/10/01 07:43:25;;;;;;;;;;;;;;;22.81;42.39;99820.63;4955552;29;848;-69
2023/10/01 07:45:59;;;;;;;;;;;;;;;22.65;42.78;99814.72;4955365;29;835;-69
2023/10/01 07:48:32;;;;;;;;;;;;;;;22.46;43.78;99814.13;4955428;29;920;-70
2023/10/01 07:51:02;;;;;;;;;;;;;;;22.47;43.89;99824.09;4937971;29;1381;-70
2023/10/01 07:53:33;;;;;;;;;;;;;;;22.44;44.16;99828.69;4938073;29;1399;-68
2023/10/01 07:56:02;;;;;;;;;;;;;;;22.33;43.82;99831.28;4955267;29;829;-70
2023/10/01 08:04:06;;;;;;;;;;;;;;;22.23;44.97;99824.94;4955043;29;912;-68
2023/10/01 08:06:43;;;;;;;;;;;;;;;22.42;45.04;99829.19;4955093;29;912;-69
2023/10/01 08:09:13;;;;;;;;;;;;;;;22.57;44.82;99828.38;4955062;29;836;-69
2023/10/01 08:14:33;;;;;;;;;;;;;;;22.87;44.35;99826.34;4955046;28;1299;-69
2023/10/01 08:17:01;;;;;;;;;;;;;;;23.17;43.72;99841.22;4954976;29;872;-66
2023/10/01 08:22:13;;;;;;;;;;;;;;;23.44;43.10;99836.47;4955110;29;1356;-68
2023/10/01 08:24:45;;;;;;;;;;;;;;;23.72;42.38;99830.44;4937590;29;1313;-69
2023/10/01 08:27:12;;;;;;;;;;;;;;;24.01;41.73;99835.97;4955054;29;860;-69
2023/10/01 08:32:24;;;;;;;;;;;;;;;24.47;41.03;99840.03;4954525;29;699;-69
2023/10/01 08:35:05;;;;;;;;;;;;;;;24.53;39.87;99832.44;4954553;29;896;-68
2023/10/01 08:37:37;;;;;;;;;;;;;;;24.28;40.17;99839.59;4954502;29;899;-68
2023/10/01 08:40:13;;;;;;;;;;;;;;;24.11;40.12;99825.31;4954415;29;1949;-70
2023/10/01 08:42:43;;;;;;;;;;;;;;;24.03;40.06;99836.25;4954372;29;927;-68
2023/10/01 08:45:12;;;;;;;;;;;;;;;24.08;40.26;99837.59;4954491;29;1223;-69
2023/10/01 08:47:45;;;;;;;;;;;;;;;24.28;40.37;99845.25;4954524;29;908;-67
2023/10/01 08:50:27;;;;;;;;;;;;;;;24.43;40.07;99839.50;4954275;29;1239;-68
2023/10/01 08:52:58;;;;;;;;;;;;;;;24.49;40.08;99834.72;4937011;29;1245;-69
2023/10/01 08:58:15;;;;;;;;;;;;;;;24.96;39.04;99843.84;4954232;29;711;-70
2023/10/01 09:00:48;;;;;;;;;;;;;;;25.23;38.70;99833.31;4953981;29;1890;-71
2023/10/01 09:03:28;;;;;;;;;;;;;;;25.20;38.61;99837.91;4954092;29;833;-70
2023/10/01 09:06:03;;;;;;;;;;;;;;;25.05;38.58;99829.56;4954117;29;944;-70
2023/10/01 09:08:43;;;;;;;;;;;;;;;25.10;38.89;99844.25;4953987;29;969;-71
2023/10/01 09:11:15;;;;;;;;;;;;;;;25.96;37.51;99833.72;4953990;29;833;-68
2023/10/01 09:13:58;;;;;;;;;;;;;;;26.76;35.87;99829.81;4953982;28;1207;-70
2023/10/01 09:16:31;;;;;;;;;;;;;;;27.07;35.12;99825.91;4954153;29;856;-70
2023/10/01 09:21:46;;;;;;;;;;;;;;;26.32;35.62;99836.91;4953818;29;1915;-69
2023/10/01 09:24:42;;;;;;;;;;;;;;;26.01;35.90;99843.50;4953875;29;840;-68
2023/10/01 09:27:11;;;;;;;;;;;;;;;25.59;36.10;99845.88;4936565;29;1421;-68
2023/10/01 09:29:43;;;;;;;;;;;;;;;25.38;36.16;99833.16;4953585;29;1201;-67
2023/10/01 09:32:13;;;;;;;;;;;;;;;25.22;36.07;99840.22;4936463;29;861;-67
2023/10/01 09:34:47;;;;;;;;;;;;;;;25.09;35.74;99840.63;4953943;29;864;-70
2023/10/01 09:37:30;;;;;;;;;;;;;;;24.92;35.70;99828.41;4953710;29;928;-70
2023/10/01 09:40:03;;;;;;;;;;;;;;;24.79;35.75;99826.00;4953500;29;1910;-70
2023/10/01 09:42:33;;;;;;;;;;;;;;;24.82;35.63;99831.44;4953726;29;879;-67
2023/10/01 09:45:09;;;;;;;;;;;;;;;24.81;35.53;99824.22;4953567;29;849;-70
2023/10/01 09:47:44;;;;;;;;;;;;;;;24.74;35.99;99821.06;4953739;29;915;-68
2023/10/01 09:50:15;;;;;;;;;;;;;;;24.83;35.63;99829.38;4936352;29;1213;-69
2023/10/01 09:52:52;;;;;;;;;;;;;;;24.76;35.46;99835.47;4936273;29;1284;-70
2023/10/01 09:55:29;;;;;;;;;;;;;;;24.71;35.22;99822.06;4953482;29;964;-70
2023/10/01 09:58:10;;;;;;;;;;;;;;;24.89;35.23;99835.06;4953343;29;972;-70
2023/10/01 10:00:40;;;;;;;;;;;;;;;25.17;35.08;99832.47;4936289;29;1961;-70
2023/10/01 10:03:11;;;;;;;;;;;;;;;25.36;34.50;99813.84;4953550;28;942;-67
2023/10/01 10:05:42;;;;;;;;;;;;;;;25.30;34.33;99829.22;4940041;29;1318;-69
2023/10/01 10:08:15;;;;;;;;;;;;;;;25.30;34.62;99823.56;4957685;29;919;-68
2023/10/01 10:10:48;;;;;;;;;;;;;;;25.32;34.28;99824.63;4957084;29;892;-70
2023/10/01 10:13:57;;;;;;;;;;;;;;;25.26;34.18;99821.78;4957125;28;1177;-69
2023/10/01 10:16:32;;;;;;;;;;;;;;;25.08;34.97;99824.94;4956565;29;1195;-69
2023/10/01 10:19:06;;;;;;;;;;;;;;;24.78;35.25;99813.91;4957269;29;900;-69
2023/10/01 10:22:04;;;;;;;;;;;;;;;24.71;35.48;99820.03;4957015;29;1982;-69
2023/10/01 10:24:46;;;;;;;;;;;;;;;24.81;35.37;99820.63;4939728;29;1277;-69
2023/10/01 10:30:16;;;;;;;;;;;;;;;24.67;35.68;99813.81;4956926;29;639;-68
2023/10/01 10:33:02;;;;;;;;;;;;;;;24.53;35.95;99818.31;4956742;29;818;-68
2023/10/01 10:35:29;;;;;;;;;;;;;;;24.29;35.59;99820.63;4956836;29;848;-69
2023/10/01 10:37:56;;;;;;;;;;;;;;;24.19;36.02;99801.00;4956733;29;880;-67
2023/10/01 10:40:23;;;;;;;;;;;;;;;24.24;36.14;99808.00;4956320;29;1878;-69
2023/10/01 10:42:59;;;;;;;;;;;;;;;24.31;35.72;99804.72;4956926;29;833;-66
2023/10/01 10:45:29;;;;;;;;;;;;;;;24.63;35.84;99799.16;4956859;29;869;-69
2023/10/01 10:48:03;;;;;;;;;;;;;;;24.98;34.56;99810.22;4956593;29;1272;-70
2023/10/01 10:50:39;;;;;;;;;;;;;;;25.02;34.40;99798.69;4956591;29;833;-68
2023/10/01 10:53:15;;;;;;;;;;;;;;;25.05;34.46;99806.16;4956445;29;845;-67
2023/10/01 10:56:10;;;;;;;;;;;;;;;25.12;34.29;99794.38;4956368;29;874;-67
2023/10/01 10:58:41;;;;;;;;;;;;;;;25.25;34.23;99797.56;4939957;29;1435;-66
2023/10/01 11:01:22;;;;;;;;;;;;;;;25.26;33.91;99804.00;4956295;29;1886;-67
2023/10/01 11:03:57;;;;;;;;;;;;;;;25.17;34.07;99804.94;4956262;29;862;-70
2023/10/01 11:06:29;;;;;;;;;;;;;;;24.96;34.14;99809.94;4956295;29;825;-67
2023/10/01 11:08:57;;;;;;;;;;;;;;;24.87;34.35;99804.47;4956289;29;872;-66
2023/10/01 11:11:28;;;;;;;;;;;;;;;24.93;34.66;99799.66;4956127;29;868;-68
2023/10/01 11:14:02;;;;;;;;;;;;;;;24.99;34.91;99794.03;4956072;28;1269;-67
2023/10/01 11:16:40;;;;;;;;;;;;;;;25.08;34.54;99798.72;4955231;28;837;-67
2023/10/01 11:19:13;;;;;;;;;;;;;;;25.02;34.54;99790.97;4938628;29;1270;-66
2023/10/01 11:22:02;;;;;;;;;;;;;;;25.10;34.44;99785.63;4956289;29;1983;-67
2023/10/01 11:24:29;;;;;;;;;;;;;;;25.13;34.35;99793.09;4946018;29;1222;-68
2023/10/01 11:27:14;;;;;;;;;;;;;;;25.17;34.60;99795.69;4955837;29;988;-68
2023/10/01 11:29:42;;;;;;;;;;;;;;;25.01;34.17;99795.09;4955844;29;1081;-68
2023/10/01 11:32:16;;;;;;;;;;;;;;;25.00;34.39;99796.34;4955901;29;977;-68
2023/10/01 11:34:45;;;;;;;;;;;;;;;24.87;34.78;99787.50;4955664;29;876;-69
2023/10/01 11:37:15;;;;;;;;;;;;;;;24.82;34.93;99793.91;4955537;29;884;-67
2023/10/01 11:39:49;;;;;;;;;;;;;;;24.96;34.75;99783.72;4938291;29;873;-67
2023/10/01 11:42:38;;;;;;;;;;;;;;;25.04;34.73;99781.97;4955567;29;1918;-66
2023/10/01 11:45:37;;;;;;;;;;;;;;;25.14;34.55;99782.56;4955696;29;891;-67
2023/10/01 11:48:05;;;;;;;;;;;;;;;25.13;34.56;99778.94;4913261;29;1074;-66
2023/10/01 11:50:32;;;;;;;;;;;;;;;25.17;34.14;99782.31;4955390;29;853;-66
2023/10/01 11:53:05;;;;;;;;;;;;;;;25.18;33.72;99777.47;4955522;29;936;-65
2023/10/01 11:55:33;;;;;;;;;;;;;;;25.21;33.76;99776.47;4955335;29;829;-66
2023/10/01 11:58:00;;;;;;;;;;;;;;;25.26;33.43;99770.06;4937886;29;1305;-68
2023/10/01 12:03:11;;;;;;;;;;;;;;;25.74;33.26;99766.44;4955157;29;687;-67
2023/10/01 12:05:42;;;;;;;;;;;;;;;26.81;32.37;99749.63;4955082;29;809;-68
2023/10/01 12:08:14;;;;;;;;;;;;;;;27.96;30.57;99754.47;4937672;29;1263;-69
2023/10/01 12:10:41;;;;;;;;;;;;;;;27.92;30.08;99734.88;4955014;29;849;-69
2023/10/01 12:13:07;;;;;;;;;;;;;;;27.84;30.05;99757.34;4955031;28;1262;-67
2023/10/01 12:15:34;;;;;;;;;;;;;;;28.22;29.77;99737.75;4954992;29;833;-69
2023/10/01 12:18:08;;;;;;;;;;;;;;;28.66;29.43;99738.75;4954868;29;834;-69
2023/10/01 12:20:39;;;;;;;;;;;;;;;28.41;28.92;99742.81;4954773;29;1986;-70
2023/10/01 12:23:13;;;;;;;;;;;;;;;27.73;29.03;99757.41;4954795;29;868;-70
2023/10/01 12:25:47;;;;;;;;;;;;;;;27.36;29.50;99744.41;4937523;29;1474;-69
2023/10/01 12:28:29;;;;;;;;;;;;;;;26.98;29.13;99755.28;4954541;29;824;-65
2023/10/01 12:30:58;;;;;;;;;;;;;;;26.51;29.75;99746.53;4937377;29;1219;-68
2023/10/01 12:33:40;;;;;;;;;;;;;;;26.39;29.95;99744.97;4954597;29;856;-67
2023/10/01 12:36:52;;;;;;;;;;;;;;;26.26;30.29;99737.75;4954533;29;880;-67
2023/10/01 12:44:33;;;;;;;;;;;;;;;26.40;29.72;99746.53;4954390;29;781;-68
2023/10/01 12:47:02;;;;;;;;;;;;;;;26.51;30.20;99728.75;4954596;29;964;-70
2023/10/01 12:49:33;;;;;;;;;;;;;;;27.53;28.91;99743.56;4954629;29;908;-68
2023/10/01 12:52:02;;;;;;;;;;;;;;;28.57;27.12;99738.31;4954352;29;829;-69
2023/10/01 12:54:28;;;;;;;;;;;;;;;28.42;26.79;99732.97;4954315;29;888;-69
2023/10/01 12:59:46;;;;;;;;;;;;;;;28.67;26.82;99736.66;4954277;29;810;-71
2023/10/01 13:02:24;;;;;;;;;;;;;;;28.25;26.84;99725.38;4954062;29;1882;-66
2023/10/01 13:05:16;;;;;;;;;;;;;;;28.33;27.38;99736.16;4954199;29;943;-67
2023/10/01 13:07:38;;;;;;;;;;;;;;;28.79;26.58;99725.97;4953591;29;1049;-67
2023/10/01 13:10:06;;;;;;;;;;;;;;;29.32;26.33;99732.16;4954072;29;1290;-67
2023/10/01 13:12:39;;;;;;;;;;;;;;;29.41;26.32;99728.94;4953962;29;1008;-67
2023/10/01 13:15:15;;;;;;;;;;;;;;;29.95;26.20;99723.59;4953918;28;1521;-67
2023/10/01 13:17:46;;;;;;;;;;;;;;;30.41;25.44;99733.03;4954119;29;872;-67
2023/10/01 13:20:22;;;;;;;;;;;;;;;29.91;24.85;99736.09;4953831;29;1910;-69
2023/10/01 13:22:51;;;;;;;;;;;;;;;28.92;25.55;99723.25;4953841;29;888;-70
2023/10/01 13:25:24;;;;;;;;;;;;;;;28.55;25.90;99712.47;4953716;29;903;-69
2023/10/01 13:28:06;;;;;;;;;;;;;;;28.28;26.27;99707.25;4953900;29;813;-70
2023/10/01 13:33:22;;;;;;;;;;;;;;;28.74;25.95;99718.25;4953767;29;635;-69
2023/10/01 13:35:58;;;;;;;;;;;;;;;28.30;26.51;99704.66;4953954;29;840;-70
2023/10/01 14:11:10;;;;;;;;;;;;;;;27.44;27.59;99704.88;4953427;29;1349;-70
2023/10/01 14:13:37;;;;;;;;;;;;;;;27.15;27.95;99718.38;4959175;28;1304;-69
2023/10/01 14:16:24;;;;;;;;;;;;;;;26.99;28.10;99708.63;4972649;28;860;-69
2023/10/01 14:18:54;;;;;;;;;;;;;;;26.86;28.35;99717.69;4972654;28;829;-68
2023/10/01 14:21:24;;;;;;;;;;;;;;;26.77;28.91;99720.00;4972541;28;1911;-68
2023/10/01 14:23:51;;;;;;;;;;;;;;;26.68;29.56;99715.38;4972598;28;899;-68
2023/10/01 14:26:33;;;;;;;;;;;;;;;26.57;29.31;99716.16;4972536;28;844;-68
2023/10/01 14:29:03;;;;;;;;;;;;;;;26.50;29.34;99722.31;4972540;28;968;-67
2023/10/01 14:31:48;;;;;;;;;;;;;;;26.42;29.07;99726.97;4972511;28;916;-67
2023/10/01 14:34:22;;;;;;;;;;;;;;;26.32;29.29;99723.59;4972470;28;963;-67
2023/10/01 14:36:54;;;;;;;;;;;;;;;26.25;29.43;99730.53;4972355;28;845;-68
2023/10/01 14:39:29;;;;;;;;;;;;;;;26.15;29.62;99728.47;4972397;28;849;-69
2023/10/01 14:41:56;;;;;;;;;;;;;;;25.95;29.82;99732.31;4972417;28;1890;-68
2023/10/01 14:44:26;;;;;;;;;;;;;;;25.92;30.43;99730.47;4972564;28;829;-67
2023/10/01 14:46:54;;;;;;;;;;;;;;;25.90;30.38;99738.72;4972582;28;880;-68
2023/10/01 14:49:23;;;;;;;;;;;;;;;25.76;30.86;99735.56;4972884;28;885;-67
2023/10/01 14:51:53;;;;;;;;;;;;;;;25.65;31.33;99749.69;4975762;28;947;-67
2023/10/01 14:54:19;;;;;;;;;;;;;;;25.56;31.31;99739.38;4976000;28;876;-68
2023/10/01 14:56:58;;;;;;;;;;;;;;;25.53;31.65;99742.44;4975734;28;900;-67
2023/10/01 14:59:34;;;;;;;;;;;;;;;25.29;31.81;99749.25;4976001;28;871;-68
2023/10/01 15:02:15;;;;;;;;;;;;;;;25.11;32.41;99752.47;4975429;28;1949;-67
2023/10/01 15:04:42;;;;;;;;;;;;;;;25.04;32.70;99739.56;4975524;28;841;-68
2023/10/01 15:07:09;;;;;;;;;;;;;;;25.00;32.59;99744.69;4975566;28;829;-67
2023/10/01 15:09:39;;;;;;;;;;;;;;;25.16;32.46;99757.41;4975533;28;829;-67
2023/10/01 15:12:07;;;;;;;;;;;;;;;25.13;32.12;99749.91;4975614;28;1056;-67
2023/10/01 15:14:34;;;;;;;;;;;;;;;25.09;31.98;99763.50;4961797;28;1309;-67
2023/10/01 15:17:02;;;;;;;;;;;;;;;25.04;31.81;99757.31;4956019;29;914;-67
2023/10/01 15:19:30;;;;;;;;;;;;;;;24.96;32.40;99752.63;4955982;29;818;-67
2023/10/01 15:22:08;;;;;;;;;;;;;;;24.86;32.49;99761.31;4955841;29;1947;-67
2023/10/01 15:24:35;;;;;;;;;;;;;;;24.74;32.65;99756.84;4938633;29;1392;-66